sensor_id;sensor_type;location;lat;lon;timestamp;temperature;humidity
26541;DHT22;14206;50.202;10.948;2023-09-07T00:02:10;16.50;89.80
26541;DHT22;14206;50.202;10.948;2023-09-07T00:04:37;16.50;89.60
26541;DHT22;14206;50.202;10.948;2023-09-07T00:07:04;16.50;89.50
26541;DHT22;14206;50.202;10.948;2023-09-07T00:09:32;16.50;89.80
26541;DHT22;14206;50.202;10.948;2023-09-07T00:11:58;16.40;90.20
26541;DHT22;14206;50.202;10.948;2023-09-07T00:14:25;16.40;90.00
26541;DHT22;14206;50.202;10.948;2023-09-07T00:16:52;16.40;89.60
26541;DHT22;14206;50.202;10.948;2023-09-07T00:19:19;16.30;89.70
26541;DHT22;14206;50.202;10.948;2023-09-07T00:21:46;16.30;89.80
26541;DHT22;14206;50.202;10.948;2023-09-07T00:24:13;16.20;90.50
26541;DHT22;14206;50.202;10.948;2023-09-07T00:26:50;16.10;90.70
26541;DHT22;14206;50.202;10.948;2023-09-07T00:29:18;16.10;90.90
26541;DHT22;14206;50.202;10.948;2023-09-07T00:31:45;16.00;91.30
26541;DHT22;14206;50.202;10.948;2023-09-07T00:34:12;16.00;91.70
26541;DHT22;14206;50.202;10.948;2023-09-07T00:36:40;16.00;91.30
26541;DHT22;14206;50.202;10.948;2023-09-07T00:39:07;15.90;91.10
26541;DHT22;14206;50.202;10.948;2023-09-07T00:41:35;15.90;91.20
26541;DHT22;14206;50.202;10.948;2023-09-07T00:44:01;15.80;90.90
26541;DHT22;14206;50.202;10.948;2023-09-07T00:46:28;15.80;91.20
26541;DHT22;14206;50.202;10.948;2023-09-07T00:48:57;15.80;91.30
26541;DHT22;14206;50.202;10.948;2023-09-07T00:51:24;15.70;91.90
26541;DHT22;14206;50.202;10.948;2023-09-07T00:53:53;15.60;92.40
26541;DHT22;14206;50.202;10.948;2023-09-07T00:56:20;15.50;92.70
26541;DHT22;14206;50.202;10.948;2023-09-07T00:58:48;15.40;93.20
26541;DHT22;14206;50.202;10.948;2023-09-07T01:01:15;15.30;93.40
26541;DHT22;14206;50.202;10.948;2023-09-07T01:03:42;15.30;93.60
26541;DHT22;14206;50.202;10.948;2023-09-07T01:06:27;15.20;93.90
26541;DHT22;14206;50.202;10.948;2023-09-07T01:09:03;15.20;93.80
26541;DHT22;14206;50.202;10.948;2023-09-07T01:11:36;15.10;93.80
26541;DHT22;14206;50.202;10.948;2023-09-07T01:14:04;15.10;93.80
26541;DHT22;14206;50.202;10.948;2023-09-07T01:16:32;15.10;94.10
26541;DHT22;14206;50.202;10.948;2023-09-07T01:19:01;15.10;93.90
26541;DHT22;14206;50.202;10.948;2023-09-07T01:21:37;15.10;94.10
26541;DHT22;14206;50.202;10.948;2023-09-07T01:24:10;15.10;93.60
26541;DHT22;14206;50.202;10.948;2023-09-07T01:26:38;15.10;93.70
26541;DHT22;14206;50.202;10.948;2023-09-07T01:29:07;15.10;94.00
26541;DHT22;14206;50.202;10.948;2023-09-07T01:31:39;15.10;93.50
26541;DHT22;14206;50.202;10.948;2023-09-07T01:34:08;15.10;93.40
26541;DHT22;14206;50.202;10.948;2023-09-07T01:36:37;15.10;93.60
26541;DHT22;14206;50.202;10.948;2023-09-07T01:39:04;15.10;94.10
26541;DHT22;14206;50.202;10.948;2023-09-07T01:41:35;15.10;94.30
26541;DHT22;14206;50.202;10.948;2023-09-07T01:44:02;15.00;94.90
26541;DHT22;14206;50.202;10.948;2023-09-07T01:46:30;15.00;95.30
26541;DHT22;14206;50.202;10.948;2023-09-07T01:48:57;14.90;95.80
26541;DHT22;14206;50.202;10.948;2023-09-07T01:51:24;14.90;96.00
26541;DHT22;14206;50.202;10.948;2023-09-07T01:53:55;14.90;95.40
26541;DHT22;14206;50.202;10.948;2023-09-07T01:56:22;14.90;95.40
26541;DHT22;14206;50.202;10.948;2023-09-07T01:58:51;14.90;94.90
26541;DHT22;14206;50.202;10.948;2023-09-07T02:01:26;14.90;94.40
26541;DHT22;14206;50.202;10.948;2023-09-07T02:03:54;14.90;94.30
26541;DHT22;14206;50.202;10.948;2023-09-07T02:06:21;14.90;94.60
26541;DHT22;14206;50.202;10.948;2023-09-07T02:08:48;14.90;94.80
26541;DHT22;14206;50.202;10.948;2023-09-07T02:11:15;14.90;94.60
26541;DHT22;14206;50.202;10.948;2023-09-07T02:13:43;14.90;94.40
26541;DHT22;14206;50.202;10.948;2023-09-07T02:16:11;14.90;94.20
26541;DHT22;14206;50.202;10.948;2023-09-07T02:18:38;14.90;93.90
26541;DHT22;14206;50.202;10.948;2023-09-07T02:21:06;14.80;94.10
26541;DHT22;14206;50.202;10.948;2023-09-07T02:23:33;14.80;94.30
26541;DHT22;14206;50.202;10.948;2023-09-07T02:26:00;14.80;93.90
26541;DHT22;14206;50.202;10.948;2023-09-07T02:28:27;14.80;94.00
26541;DHT22;14206;50.202;10.948;2023-09-07T02:30:54;14.80;94.30
26541;DHT22;14206;50.202;10.948;2023-09-07T02:33:21;14.80;94.30
26541;DHT22;14206;50.202;10.948;2023-09-07T02:35:49;14.80;94.20
26541;DHT22;14206;50.202;10.948;2023-09-07T02:38:16;14.80;94.10
26541;DHT22;14206;50.202;10.948;2023-09-07T02:40:44;14.80;94.30
26541;DHT22;14206;50.202;10.948;2023-09-07T02:43:12;14.70;94.10
26541;DHT22;14206;50.202;10.948;2023-09-07T02:45:39;14.70;94.40
26541;DHT22;14206;50.202;10.948;2023-09-07T02:48:12;14.60;94.20
26541;DHT22;14206;50.202;10.948;2023-09-07T02:50:40;14.60;94.20
26541;DHT22;14206;50.202;10.948;2023-09-07T02:53:07;14.50;94.30
26541;DHT22;14206;50.202;10.948;2023-09-07T02:55:34;14.50;94.20
26541;DHT22;14206;50.202;10.948;2023-09-07T02:58:03;14.50;94.40
26541;DHT22;14206;50.202;10.948;2023-09-07T03:00:30;14.40;94.30
26541;DHT22;14206;50.202;10.948;2023-09-07T03:02:58;14.40;94.50
26541;DHT22;14206;50.202;10.948;2023-09-07T03:05:27;14.40;94.90
26541;DHT22;14206;50.202;10.948;2023-09-07T03:07:55;14.40;94.80
26541;DHT22;14206;50.202;10.948;2023-09-07T03:10:22;14.40;94.90
26541;DHT22;14206;50.202;10.948;2023-09-07T03:12:49;14.40;94.80
26541;DHT22;14206;50.202;10.948;2023-09-07T03:15:16;14.40;95.10
26541;DHT22;14206;50.202;10.948;2023-09-07T03:17:45;14.40;95.00
26541;DHT22;14206;50.202;10.948;2023-09-07T03:20:13;14.40;95.20
26541;DHT22;14206;50.202;10.948;2023-09-07T03:22:47;14.40;95.60
26541;DHT22;14206;50.202;10.948;2023-09-07T03:25:14;14.40;95.70
26541;DHT22;14206;50.202;10.948;2023-09-07T03:27:41;14.40;95.60
26541;DHT22;14206;50.202;10.948;2023-09-07T03:30:11;14.40;95.60
26541;DHT22;14206;50.202;10.948;2023-09-07T03:32:38;14.30;95.30
26541;DHT22;14206;50.202;10.948;2023-09-07T03:35:05;14.20;96.00
26541;DHT22;14206;50.202;10.948;2023-09-07T03:37:36;14.20;96.10
26541;DHT22;14206;50.202;10.948;2023-09-07T03:40:06;14.20;96.10
26541;DHT22;14206;50.202;10.948;2023-09-07T03:42:37;14.20;96.30
26541;DHT22;14206;50.202;10.948;2023-09-07T03:45:05;14.10;96.00
26541;DHT22;14206;50.202;10.948;2023-09-07T03:47:32;14.10;95.90
26541;DHT22;14206;50.202;10.948;2023-09-07T03:50:00;14.10;95.60
26541;DHT22;14206;50.202;10.948;2023-09-07T03:52:29;14.10;95.70
26541;DHT22;14206;50.202;10.948;2023-09-07T03:54:59;14.10;95.60
26541;DHT22;14206;50.202;10.948;2023-09-07T03:57:27;14.10;95.60
26541;DHT22;14206;50.202;10.948;2023-09-07T03:59:54;14.00;95.50
26541;DHT22;14206;50.202;10.948;2023-09-07T04:02:24;14.00;95.50
26541;DHT22;14206;50.202;10.948;2023-09-07T04:04:53;14.00;95.60
26541;DHT22;14206;50.202;10.948;2023-09-07T04:07:21;14.00;95.80
26541;DHT22;14206;50.202;10.948;2023-09-07T04:09:50;14.00;95.70
26541;DHT22;14206;50.202;10.948;2023-09-07T04:12:17;14.00;95.70
26541;DHT22;14206;50.202;10.948;2023-09-07T04:14:44;14.00;96.00
26541;DHT22;14206;50.202;10.948;2023-09-07T04:17:11;14.00;95.90
26541;DHT22;14206;50.202;10.948;2023-09-07T04:19:40;14.00;95.90
26541;DHT22;14206;50.202;10.948;2023-09-07T04:22:07;14.00;95.90
26541;DHT22;14206;50.202;10.948;2023-09-07T04:24:34;14.00;95.70
26541;DHT22;14206;50.202;10.948;2023-09-07T04:27:02;14.00;95.70
26541;DHT22;14206;50.202;10.948;2023-09-07T04:29:31;13.90;95.60
26541;DHT22;14206;50.202;10.948;2023-09-07T04:31:58;13.90;95.50
26541;DHT22;14206;50.202;10.948;2023-09-07T04:34:25;13.90;95.50
26541;DHT22;14206;50.202;10.948;2023-09-07T04:36:53;13.90;95.60
26541;DHT22;14206;50.202;10.948;2023-09-07T04:39:20;13.90;95.60
26541;DHT22;14206;50.202;10.948;2023-09-07T04:41:48;13.90;95.70
26541;DHT22;14206;50.202;10.948;2023-09-07T04:44:15;13.90;95.70
26541;DHT22;14206;50.202;10.948;2023-09-07T04:46:42;13.90;95.80
26541;DHT22;14206;50.202;10.948;2023-09-07T04:49:10;13.90;95.90
26541;DHT22;14206;50.202;10.948;2023-09-07T04:51:37;13.90;96.00
26541;DHT22;14206;50.202;10.948;2023-09-07T04:54:05;13.90;95.90
26541;DHT22;14206;50.202;10.948;2023-09-07T04:56:31;13.90;95.70
26541;DHT22;14206;50.202;10.948;2023-09-07T04:58:58;13.90;95.80
26541;DHT22;14206;50.202;10.948;2023-09-07T05:01:26;13.90;95.70
26541;DHT22;14206;50.202;10.948;2023-09-07T05:03:54;13.90;95.60
26541;DHT22;14206;50.202;10.948;2023-09-07T05:06:22;13.90;95.30
26541;DHT22;14206;50.202;10.948;2023-09-07T05:08:57;13.90;95.30
26541;DHT22;14206;50.202;10.948;2023-09-07T05:11:24;13.90;95.40
26541;DHT22;14206;50.202;10.948;2023-09-07T05:13:57;13.90;95.50
26541;DHT22;14206;50.202;10.948;2023-09-07T05:16:25;14.00;95.70
26541;DHT22;14206;50.202;10.948;2023-09-07T05:18:52;14.00;95.70
26541;DHT22;14206;50.202;10.948;2023-09-07T05:21:19;14.00;96.30
26541;DHT22;14206;50.202;10.948;2023-09-07T05:23:46;14.00;96.60
26541;DHT22;14206;50.202;10.948;2023-09-07T05:26:13;14.10;96.50
26541;DHT22;14206;50.202;10.948;2023-09-07T05:28:40;14.10;96.40
26541;DHT22;14206;50.202;10.948;2023-09-07T05:31:12;14.10;96.30
26541;DHT22;14206;50.202;10.948;2023-09-07T05:33:40;14.10;96.60
26541;DHT22;14206;50.202;10.948;2023-09-07T05:36:07;14.20;96.60
26541;DHT22;14206;50.202;10.948;2023-09-07T05:38:35;14.20;96.60
26541;DHT22;14206;50.202;10.948;2023-09-07T05:41:03;14.20;96.60
26541;DHT22;14206;50.202;10.948;2023-09-07T05:43:30;14.30;96.60
26541;DHT22;14206;50.202;10.948;2023-09-07T05:45:59;14.40;96.60
26541;DHT22;14206;50.202;10.948;2023-09-07T05:48:26;14.40;96.60
26541;DHT22;14206;50.202;10.948;2023-09-07T05:50:54;14.50;96.60
26541;DHT22;14206;50.202;10.948;2023-09-07T05:53:21;14.50;96.60
26541;DHT22;14206;50.202;10.948;2023-09-07T05:55:48;14.60;96.60
26541;DHT22;14206;50.202;10.948;2023-09-07T05:58:15;14.70;96.60
26541;DHT22;14206;50.202;10.948;2023-09-07T06:00:43;14.80;96.60
26541;DHT22;14206;50.202;10.948;2023-09-07T06:03:11;14.80;96.60
26541;DHT22;14206;50.202;10.948;2023-09-07T06:05:39;14.90;96.60
26541;DHT22;14206;50.202;10.948;2023-09-07T06:08:08;15.00;96.60
26541;DHT22;14206;50.202;10.948;2023-09-07T06:10:35;15.10;96.60
26541;DHT22;14206;50.202;10.948;2023-09-07T06:13:04;15.20;96.60
26541;DHT22;14206;50.202;10.948;2023-09-07T06:15:31;15.30;96.60
26541;DHT22;14206;50.202;10.948;2023-09-07T06:17:58;15.40;96.60
26541;DHT22;14206;50.202;10.948;2023-09-07T06:20:26;15.50;96.60
26541;DHT22;14206;50.202;10.948;2023-09-07T06:22:56;15.60;96.60
26541;DHT22;14206;50.202;10.948;2023-09-07T06:25:23;15.70;96.60
26541;DHT22;14206;50.202;10.948;2023-09-07T06:27:51;15.90;96.60
26541;DHT22;14206;50.202;10.948;2023-09-07T06:30:18;16.00;96.60
26541;DHT22;14206;50.202;10.948;2023-09-07T06:32:45;16.10;96.50
26541;DHT22;14206;50.202;10.948;2023-09-07T06:35:14;16.20;96.40
26541;DHT22;14206;50.202;10.948;2023-09-07T06:37:41;16.40;96.20
26541;DHT22;14206;50.202;10.948;2023-09-07T06:40:11;16.50;96.20
26541;DHT22;14206;50.202;10.948;2023-09-07T06:42:41;16.60;96.20
26541;DHT22;14206;50.202;10.948;2023-09-07T06:45:14;16.70;95.90
26541;DHT22;14206;50.202;10.948;2023-09-07T06:47:41;16.80;95.50
26541;DHT22;14206;50.202;10.948;2023-09-07T06:50:10;17.00;95.60
26541;DHT22;14206;50.202;10.948;2023-09-07T06:52:37;17.10;95.90
26541;DHT22;14206;50.202;10.948;2023-09-07T06:55:05;17.20;95.90
26541;DHT22;14206;50.202;10.948;2023-09-07T06:57:32;17.40;95.50
26541;DHT22;14206;50.202;10.948;2023-09-07T07:00:03;17.50;95.10
26541;DHT22;14206;50.202;10.948;2023-09-07T07:02:34;17.70;94.70
26541;DHT22;14206;50.202;10.948;2023-09-07T07:05:02;17.90;94.50
26541;DHT22;14206;50.202;10.948;2023-09-07T07:07:30;18.10;93.50
26541;DHT22;14206;50.202;10.948;2023-09-07T07:09:57;18.30;92.30
26541;DHT22;14206;50.202;10.948;2023-09-07T07:12:24;18.40;91.70
26541;DHT22;14206;50.202;10.948;2023-09-07T07:14:53;18.70;91.60
26541;DHT22;14206;50.202;10.948;2023-09-07T07:17:20;18.80;91.10
26541;DHT22;14206;50.202;10.948;2023-09-07T07:19:48;19.00;90.20
26541;DHT22;14206;50.202;10.948;2023-09-07T07:22:15;19.20;88.90
26541;DHT22;14206;50.202;10.948;2023-09-07T07:24:47;19.40;87.80
26541;DHT22;14206;50.202;10.948;2023-09-07T07:27:15;19.70;88.10
26541;DHT22;14206;50.202;10.948;2023-09-07T07:29:41;19.90;87.40
26541;DHT22;14206;50.202;10.948;2023-09-07T07:32:09;20.10;86.40
26541;DHT22;14206;50.202;10.948;2023-09-07T07:34:39;20.30;85.80
26541;DHT22;14206;50.202;10.948;2023-09-07T07:37:13;20.50;85.40
26541;DHT22;14206;50.202;10.948;2023-09-07T07:39:40;20.80;84.40
26541;DHT22;14206;50.202;10.948;2023-09-07T07:42:07;21.10;84.70
26541;DHT22;14206;50.202;10.948;2023-09-07T07:44:34;21.60;84.60
26541;DHT22;14206;50.202;10.948;2023-09-07T07:47:01;22.70;82.50
26541;DHT22;14206;50.202;10.948;2023-09-07T07:49:28;24.20;78.20
26541;DHT22;14206;50.202;10.948;2023-09-07T07:51:56;25.70;74.90
26541;DHT22;14206;50.202;10.948;2023-09-07T07:54:24;27.20;71.40
26541;DHT22;14206;50.202;10.948;2023-09-07T07:56:54;28.60;66.30
26541;DHT22;14206;50.202;10.948;2023-09-07T07:59:21;29.90;61.30
26541;DHT22;14206;50.202;10.948;2023-09-07T08:01:48;31.00;61.60
26541;DHT22;14206;50.202;10.948;2023-09-07T08:04:16;32.10;59.50
26541;DHT22;14206;50.202;10.948;2023-09-07T08:06:46;33.00;57.30
26541;DHT22;14206;50.202;10.948;2023-09-07T08:09:13;34.00;55.00
26541;DHT22;14206;50.202;10.948;2023-09-07T08:11:41;34.90;54.20
26541;DHT22;14206;50.202;10.948;2023-09-07T08:14:10;35.70;52.50
26541;DHT22;14206;50.202;10.948;2023-09-07T08:16:37;36.50;50.90
26541;DHT22;14206;50.202;10.948;2023-09-07T08:19:04;37.20;49.50
26541;DHT22;14206;50.202;10.948;2023-09-07T08:21:31;37.70;48.50
26541;DHT22;14206;50.202;10.948;2023-09-07T08:23:58;38.40;47.60
26541;DHT22;14206;50.202;10.948;2023-09-07T08:26:26;38.80;45.50
26541;DHT22;14206;50.202;10.948;2023-09-07T08:28:53;39.10;44.20
26541;DHT22;14206;50.202;10.948;2023-09-07T08:31:20;39.10;43.80
26541;DHT22;14206;50.202;10.948;2023-09-07T08:33:49;39.10;44.50
26541;DHT22;14206;50.202;10.948;2023-09-07T08:36:21;39.30;43.50
26541;DHT22;14206;50.202;10.948;2023-09-07T08:38:51;39.40;43.10
26541;DHT22;14206;50.202;10.948;2023-09-07T08:41:21;39.40;42.30
26541;DHT22;14206;50.202;10.948;2023-09-07T08:43:52;39.50;42.50
26541;DHT22;14206;50.202;10.948;2023-09-07T08:46:20;39.70;41.60
26541;DHT22;14206;50.202;10.948;2023-09-07T08:48:49;40.00;42.50
26541;DHT22;14206;50.202;10.948;2023-09-07T08:51:18;40.20;41.60
26541;DHT22;14206;50.202;10.948;2023-09-07T08:53:46;40.40;40.80
26541;DHT22;14206;50.202;10.948;2023-09-07T08:56:13;40.60;40.00
26541;DHT22;14206;50.202;10.948;2023-09-07T08:58:42;40.60;40.50
26541;DHT22;14206;50.202;10.948;2023-09-07T09:01:12;40.60;40.70
26541;DHT22;14206;50.202;10.948;2023-09-07T09:03:40;40.70;38.50
26541;DHT22;14206;50.202;10.948;2023-09-07T09:06:11;40.20;38.20
26541;DHT22;14206;50.202;10.948;2023-09-07T09:08:46;39.10;39.90
26541;DHT22;14206;50.202;10.948;2023-09-07T09:11:17;38.10;41.80
26541;DHT22;14206;50.202;10.948;2023-09-07T09:13:45;37.80;41.90
26541;DHT22;14206;50.202;10.948;2023-09-07T09:16:13;38.00;42.20
26541;DHT22;14206;50.202;10.948;2023-09-07T09:18:54;38.50;41.60
26541;DHT22;14206;50.202;10.948;2023-09-07T09:21:30;39.10;40.10
26541;DHT22;14206;50.202;10.948;2023-09-07T09:23:58;39.50;41.10
26541;DHT22;14206;50.202;10.948;2023-09-07T09:26:26;40.00;41.50
26541;DHT22;14206;50.202;10.948;2023-09-07T09:28:56;40.60;39.10
26541;DHT22;14206;50.202;10.948;2023-09-07T09:31:23;41.00;38.10
26541;DHT22;14206;50.202;10.948;2023-09-07T09:33:51;41.40;38.60
26541;DHT22;14206;50.202;10.948;2023-09-07T09:36:20;41.70;37.50
26541;DHT22;14206;50.202;10.948;2023-09-07T09:38:49;42.10;37.70
26541;DHT22;14206;50.202;10.948;2023-09-07T09:41:22;42.40;36.90
26541;DHT22;14206;50.202;10.948;2023-09-07T09:43:50;42.70;36.20
26541;DHT22;14206;50.202;10.948;2023-09-07T09:46:18;42.70;35.10
26541;DHT22;14206;50.202;10.948;2023-09-07T09:48:46;42.70;35.70
26541;DHT22;14206;50.202;10.948;2023-09-07T09:51:14;42.80;36.80
26541;DHT22;14206;50.202;10.948;2023-09-07T09:53:42;43.00;35.00
26541;DHT22;14206;50.202;10.948;2023-09-07T09:56:09;42.90;35.00
26541;DHT22;14206;50.202;10.948;2023-09-07T09:58:37;42.80;35.00
26541;DHT22;14206;50.202;10.948;2023-09-07T10:01:04;43.00;35.50
26541;DHT22;14206;50.202;10.948;2023-09-07T10:03:38;43.30;35.70
26541;DHT22;14206;50.202;10.948;2023-09-07T10:06:25;43.40;35.80
26541;DHT22;14206;50.202;10.948;2023-09-07T10:08:58;43.80;35.10
26541;DHT22;14206;50.202;10.948;2023-09-07T10:11:36;43.90;34.60
26541;DHT22;14206;50.202;10.948;2023-09-07T10:14:07;44.10;33.90
26541;DHT22;14206;50.202;10.948;2023-09-07T10:16:49;44.00;34.80
26541;DHT22;14206;50.202;10.948;2023-09-07T10:19:21;44.20;33.50
26541;DHT22;14206;50.202;10.948;2023-09-07T10:21:49;44.10;32.80
26541;DHT22;14206;50.202;10.948;2023-09-07T10:24:26;43.90;33.10
26541;DHT22;14206;50.202;10.948;2023-09-07T10:27:04;43.80;33.50
26541;DHT22;14206;50.202;10.948;2023-09-07T10:29:50;43.70;33.50
26541;DHT22;14206;50.202;10.948;2023-09-07T10:32:22;43.40;33.80
26541;DHT22;14206;50.202;10.948;2023-09-07T10:34:50;43.50;35.10
26541;DHT22;14206;50.202;10.948;2023-09-07T10:37:17;43.60;34.50
26541;DHT22;14206;50.202;10.948;2023-09-07T10:39:50;43.80;34.10
26541;DHT22;14206;50.202;10.948;2023-09-07T10:42:26;44.00;33.70
26541;DHT22;14206;50.202;10.948;2023-09-07T10:44:53;44.20;33.70
26541;DHT22;14206;50.202;10.948;2023-09-07T10:47:21;44.20;34.90
26541;DHT22;14206;50.202;10.948;2023-09-07T10:49:48;44.40;33.90
26541;DHT22;14206;50.202;10.948;2023-09-07T10:52:16;44.60;32.80
26541;DHT22;14206;50.202;10.948;2023-09-07T10:54:43;44.30;33.00
26541;DHT22;14206;50.202;10.948;2023-09-07T10:57:11;44.10;32.20
26541;DHT22;14206;50.202;10.948;2023-09-07T10:59:49;43.70;32.20
26541;DHT22;14206;50.202;10.948;2023-09-07T11:02:16;43.20;33.90
26541;DHT22;14206;50.202;10.948;2023-09-07T11:04:43;43.30;34.30
26541;DHT22;14206;50.202;10.948;2023-09-07T11:07:19;43.40;34.40
26541;DHT22;14206;50.202;10.948;2023-09-07T11:09:51;43.70;33.90
26541;DHT22;14206;50.202;10.948;2023-09-07T11:12:20;43.80;33.30
26541;DHT22;14206;50.202;10.948;2023-09-07T11:14:48;44.10;34.10
26541;DHT22;14206;50.202;10.948;2023-09-07T11:17:16;44.50;32.70
26541;DHT22;14206;50.202;10.948;2023-09-07T11:19:43;44.40;32.80
26541;DHT22;14206;50.202;10.948;2023-09-07T11:22:10;44.50;32.70
26541;DHT22;14206;50.202;10.948;2023-09-07T11:24:37;44.50;33.30
26541;DHT22;14206;50.202;10.948;2023-09-07T11:27:04;44.90;33.10
26541;DHT22;14206;50.202;10.948;2023-09-07T11:29:32;45.20;32.40
26541;DHT22;14206;50.202;10.948;2023-09-07T11:32:09;45.30;32.20
26541;DHT22;14206;50.202;10.948;2023-09-07T11:34:57;45.10;31.60
26541;DHT22;14206;50.202;10.948;2023-09-07T11:37:26;45.20;31.90
26541;DHT22;14206;50.202;10.948;2023-09-07T11:39:53;45.60;31.60
26541;DHT22;14206;50.202;10.948;2023-09-07T11:42:20;45.60;31.70
26541;DHT22;14206;50.202;10.948;2023-09-07T11:44:47;45.70;32.10
26541;DHT22;14206;50.202;10.948;2023-09-07T11:47:14;45.80;31.50
26541;DHT22;14206;50.202;10.948;2023-09-07T11:49:41;45.80;31.30
26541;DHT22;14206;50.202;10.948;2023-09-07T11:52:08;45.80;30.90
26541;DHT22;14206;50.202;10.948;2023-09-07T11:54:35;45.60;31.90
26541;DHT22;14206;50.202;10.948;2023-09-07T11:57:02;45.70;30.70
26541;DHT22;14206;50.202;10.948;2023-09-07T11:59:30;45.50;31.10
26541;DHT22;14206;50.202;10.948;2023-09-07T12:02:14;45.60;31.80
26541;DHT22;14206;50.202;10.948;2023-09-07T12:04:42;45.60;31.50
26541;DHT22;14206;50.202;10.948;2023-09-07T12:07:09;45.30;31.80
26541;DHT22;14206;50.202;10.948;2023-09-07T12:09:36;45.10;31.20
26541;DHT22;14206;50.202;10.948;2023-09-07T12:12:04;45.00;31.40
26541;DHT22;14206;50.202;10.948;2023-09-07T12:14:31;44.80;31.20
26541;DHT22;14206;50.202;10.948;2023-09-07T12:16:58;44.40;31.00
26541;DHT22;14206;50.202;10.948;2023-09-07T12:19:28;44.10;31.70
26541;DHT22;14206;50.202;10.948;2023-09-07T12:21:55;43.90;32.00
26541;DHT22;14206;50.202;10.948;2023-09-07T12:24:22;43.60;31.80
26541;DHT22;14206;50.202;10.948;2023-09-07T12:26:49;43.40;32.90
26541;DHT22;14206;50.202;10.948;2023-09-07T12:29:16;43.30;31.80
26541;DHT22;14206;50.202;10.948;2023-09-07T12:31:43;43.20;33.00
26541;DHT22;14206;50.202;10.948;2023-09-07T12:34:10;43.10;32.40
26541;DHT22;14206;50.202;10.948;2023-09-07T12:36:38;42.90;32.10
26541;DHT22;14206;50.202;10.948;2023-09-07T12:39:05;42.70;33.20
26541;DHT22;14206;50.202;10.948;2023-09-07T12:41:32;42.70;32.20
26541;DHT22;14206;50.202;10.948;2023-09-07T12:43:59;42.50;32.80
26541;DHT22;14206;50.202;10.948;2023-09-07T12:46:26;42.20;33.20
26541;DHT22;14206;50.202;10.948;2023-09-07T12:48:53;41.60;34.20
26541;DHT22;14206;50.202;10.948;2023-09-07T12:51:20;40.80;34.40
26541;DHT22;14206;50.202;10.948;2023-09-07T12:53:47;39.90;35.30
26541;DHT22;14206;50.202;10.948;2023-09-07T12:56:14;39.00;36.50
26541;DHT22;14206;50.202;10.948;2023-09-07T12:58:42;38.00;37.70
26541;DHT22;14206;50.202;10.948;2023-09-07T13:01:09;36.90;38.90
26541;DHT22;14206;50.202;10.948;2023-09-07T13:03:39;36.00;40.10
26541;DHT22;14206;50.202;10.948;2023-09-07T13:06:06;35.30;41.20
26541;DHT22;14206;50.202;10.948;2023-09-07T13:08:34;34.60;41.30
26541;DHT22;14206;50.202;10.948;2023-09-07T13:11:03;34.10;43.10
26541;DHT22;14206;50.202;10.948;2023-09-07T13:13:30;33.60;43.20
26541;DHT22;14206;50.202;10.948;2023-09-07T13:15:58;33.20;43.90
26541;DHT22;14206;50.202;10.948;2023-09-07T13:18:25;32.80;44.50
26541;DHT22;14206;50.202;10.948;2023-09-07T13:20:52;32.60;45.50
26541;DHT22;14206;50.202;10.948;2023-09-07T13:23:27;32.30;46.50
26541;DHT22;14206;50.202;10.948;2023-09-07T13:26:03;32.20;45.90
26541;DHT22;14206;50.202;10.948;2023-09-07T13:28:30;31.90;45.80
26541;DHT22;14206;50.202;10.948;2023-09-07T13:30:59;31.70;46.50
26541;DHT22;14206;50.202;10.948;2023-09-07T13:33:26;31.50;47.60
26541;DHT22;14206;50.202;10.948;2023-09-07T13:35:53;31.30;46.60
26541;DHT22;14206;50.202;10.948;2023-09-07T13:38:20;31.20;46.50
26541;DHT22;14206;50.202;10.948;2023-09-07T13:40:46;31.00;47.30
26541;DHT22;14206;50.202;10.948;2023-09-07T13:43:13;30.90;47.20
26541;DHT22;14206;50.202;10.948;2023-09-07T13:45:40;30.70;48.50
26541;DHT22;14206;50.202;10.948;2023-09-07T13:48:07;30.70;49.20
26541;DHT22;14206;50.202;10.948;2023-09-07T13:50:35;30.60;48.80
26541;DHT22;14206;50.202;10.948;2023-09-07T13:53:02;30.60;49.10
26541;DHT22;14206;50.202;10.948;2023-09-07T13:55:29;30.60;48.70
26541;DHT22;14206;50.202;10.948;2023-09-07T13:57:56;30.60;49.20
26541;DHT22;14206;50.202;10.948;2023-09-07T14:00:23;30.50;48.80
26541;DHT22;14206;50.202;10.948;2023-09-07T14:02:56;30.50;48.70
26541;DHT22;14206;50.202;10.948;2023-09-07T14:05:24;30.40;48.00
26541;DHT22;14206;50.202;10.948;2023-09-07T14:07:51;30.30;48.10
26541;DHT22;14206;50.202;10.948;2023-09-07T14:10:17;30.20;48.80
26541;DHT22;14206;50.202;10.948;2023-09-07T14:12:45;30.20;48.70
26541;DHT22;14206;50.202;10.948;2023-09-07T14:15:13;30.10;48.60
26541;DHT22;14206;50.202;10.948;2023-09-07T14:17:40;30.10;48.60
26541;DHT22;14206;50.202;10.948;2023-09-07T14:20:13;30.00;48.10
26541;DHT22;14206;50.202;10.948;2023-09-07T14:22:40;30.00;49.10
26541;DHT22;14206;50.202;10.948;2023-09-07T14:25:08;30.00;49.50
26541;DHT22;14206;50.202;10.948;2023-09-07T14:27:35;30.00;49.00
26541;DHT22;14206;50.202;10.948;2023-09-07T14:30:02;30.00;48.40
26541;DHT22;14206;50.202;10.948;2023-09-07T14:32:29;29.90;48.80
26541;DHT22;14206;50.202;10.948;2023-09-07T14:34:56;29.90;48.60
26541;DHT22;14206;50.202;10.948;2023-09-07T14:37:23;29.90;48.50
26541;DHT22;14206;50.202;10.948;2023-09-07T14:39:50;29.90;48.50
26541;DHT22;14206;50.202;10.948;2023-09-07T14:42:20;29.90;47.80
26541;DHT22;14206;50.202;10.948;2023-09-07T14:44:47;29.90;48.10
26541;DHT22;14206;50.202;10.948;2023-09-07T14:47:14;29.90;48.80
26541;DHT22;14206;50.202;10.948;2023-09-07T14:49:43;29.90;49.10
26541;DHT22;14206;50.202;10.948;2023-09-07T14:52:10;29.90;48.20
26541;DHT22;14206;50.202;10.948;2023-09-07T14:54:38;29.80;48.50
26541;DHT22;14206;50.202;10.948;2023-09-07T14:57:06;29.80;48.40
26541;DHT22;14206;50.202;10.948;2023-09-07T14:59:33;29.90;48.10
26541;DHT22;14206;50.202;10.948;2023-09-07T15:02:01;29.80;48.00
26541;DHT22;14206;50.202;10.948;2023-09-07T15:04:34;29.80;48.10
26541;DHT22;14206;50.202;10.948;2023-09-07T15:07:01;29.80;48.10
26541;DHT22;14206;50.202;10.948;2023-09-07T15:09:29;29.80;48.50
26541;DHT22;14206;50.202;10.948;2023-09-07T15:11:56;29.80;48.80
26541;DHT22;14206;50.202;10.948;2023-09-07T15:14:23;29.70;48.60
26541;DHT22;14206;50.202;10.948;2023-09-07T15:16:50;29.70;47.50
26541;DHT22;14206;50.202;10.948;2023-09-07T15:19:17;29.60;47.50
26541;DHT22;14206;50.202;10.948;2023-09-07T15:21:46;29.60;47.70
26541;DHT22;14206;50.202;10.948;2023-09-07T15:24:13;29.50;47.50